createdAt,value
2022-08-16T00:01:35.658Z,70.89
2022-08-16T00:04:15.311Z,70.40
2022-08-16T00:06:46.351Z,70.40
2022-08-16T00:09:17.238Z,70.77
2022-08-16T00:11:52.729Z,70.78
2022-08-16T00:14:28.974Z,71.00
2022-08-16T00:17:18.194Z,70.90
2022-08-16T00:23:12.842Z,71.60
2022-08-16T00:26:33.593Z,72.08
2022-08-16T00:28:40.765Z,72.31
2022-08-16T00:31:10.485Z,72.29
2022-08-16T00:33:41.020Z,71.92
2022-08-16T00:36:22.381Z,72.00
2022-08-16T00:38:53.986Z,72.16
2022-08-16T00:41:27.065Z,71.96
2022-08-16T00:43:57.368Z,72.27
2022-08-16T00:46:35.321Z,71.81
2022-08-16T00:49:17.490Z,71.41
2022-08-16T00:51:55.226Z,71.40
2022-08-16T00:54:29.630Z,71.18
2022-08-16T00:57:02.439Z,71.82
2022-08-16T00:59:36.168Z,71.84
2022-08-16T01:02:31.703Z,71.99
2022-08-16T01:05:11.262Z,71.68
2022-08-16T01:07:51.788Z,72.23
2022-08-16T01:10:31.220Z,73.26
2022-08-16T01:13:04.645Z,73.40
2022-08-16T01:15:36.982Z,72.98
2022-08-16T01:18:40.493Z,73.19
2022-08-16T01:21:22.160Z,72.83
2022-08-16T01:24:52.890Z,72.75
2022-08-16T01:27:17.513Z,72.68
2022-08-16T01:29:57.329Z,72.44
2022-08-16T01:32:34.183Z,72.15
2022-08-16T01:35:17.531Z,72.34
2022-08-16T01:37:54.624Z,72.04
2022-08-16T01:40:36.686Z,71.89
2022-08-16T01:43:09.560Z,72.55
2022-08-16T01:45:42.166Z,72.55
2022-08-16T01:48:20.196Z,72.82
2022-08-16T01:51:15.493Z,72.31
2022-08-16T01:53:55.451Z,72.10
2022-08-16T01:56:38.247Z,72.07
2022-08-16T01:59:15.751Z,71.99
2022-08-16T02:01:52.871Z,71.45
2022-08-16T02:04:49.371Z,71.60
2022-08-16T02:07:26.339Z,71.15
2022-08-16T02:09:59.800Z,71.01
2022-08-16T02:12:51.228Z,70.94
2022-08-16T02:15:35.351Z,70.83
2022-08-16T02:18:07.779Z,70.61
2022-08-16T02:20:53.429Z,70.38
2022-08-16T02:23:26.643Z,70.36
2022-08-16T02:26:02.113Z,70.90
2022-08-16T02:28:39.420Z,70.40
2022-08-16T02:31:18.919Z,70.48
2022-08-16T02:33:50.664Z,70.69
2022-08-16T02:36:42.450Z,71.20
2022-08-16T02:39:23.887Z,71.33
2022-08-16T02:41:56.150Z,71.90
2022-08-16T02:44:29.587Z,71.94
2022-08-16T02:47:00.147Z,72.06
2022-08-16T02:50:36.240Z,71.53
2022-08-16T02:52:24.789Z,72.06
2022-08-16T02:55:01.613Z,72.05
2022-08-16T02:57:31.830Z,72.42
2022-08-16T03:00:33.908Z,72.14
2022-08-16T03:02:58.983Z,72.92
2022-08-16T03:05:31.069Z,72.78
2022-08-16T03:08:03.345Z,72.91
2022-08-16T03:10:39.854Z,73.15
2022-08-16T03:13:12.244Z,72.70
2022-08-16T03:15:46.706Z,72.74
2022-08-16T03:18:34.431Z,72.72
2022-08-16T03:21:10.241Z,72.89
2022-08-16T03:23:44.194Z,72.44
2022-08-16T03:26:15.052Z,72.47
2022-08-16T03:28:47.989Z,72.90
2022-08-16T03:31:21.976Z,72.71
2022-08-16T03:33:52.271Z,72.64
2022-08-16T03:36:31.120Z,72.71
2022-08-16T03:39:06.746Z,73.31
2022-08-16T03:41:50.084Z,73.59
2022-08-16T03:44:44.268Z,73.68
2022-08-16T03:47:13.196Z,74.16
2022-08-16T03:49:51.256Z,74.57
2022-08-16T03:52:23.479Z,75.00
2022-08-16T03:54:59.330Z,75.28
2022-08-16T03:57:32.120Z,75.09
2022-08-16T04:00:20.692Z,74.43
2022-08-16T04:03:11.575Z,74.39
2022-08-16T04:05:47.371Z,74.10
2022-08-16T04:08:23.111Z,74.47
2022-08-16T04:10:57.863Z,74.72
2022-08-16T04:13:58.919Z,74.09
2022-08-16T04:16:26.768Z,74.73
2022-08-16T04:19:06.512Z,74.00
2022-08-16T04:21:45.875Z,73.68
2022-08-16T04:24:18.434Z,73.87
2022-08-16T04:26:49.631Z,73.68
2022-08-16T04:29:23.860Z,73.52
2022-08-16T04:32:13.829Z,73.19
2022-08-16T04:34:48.167Z,73.62
2022-08-16T04:37:17.889Z,74.88
2022-08-16T04:39:57.017Z,74.88
2022-08-16T04:42:29.781Z,75.29
2022-08-16T04:45:07.013Z,75.51
2022-08-16T04:47:37.895Z,75.62
2022-08-16T04:50:19.205Z,75.81
2022-08-16T04:53:07.664Z,75.75
2022-08-16T04:55:40.191Z,75.13
2022-08-16T04:58:44.723Z,75.04
2022-08-16T05:01:08.022Z,74.50
2022-08-16T05:03:42.051Z,74.07
2022-08-16T05:06:40.138Z,73.73
2022-08-16T05:09:16.365Z,72.91
2022-08-16T05:11:46.441Z,73.10
2022-08-16T05:14:20.263Z,72.17
2022-08-16T05:17:08.897Z,72.65
2022-08-16T05:19:46.508Z,72.95
2022-08-16T05:22:30.237Z,72.27
2022-08-16T05:25:08.760Z,71.55
2022-08-16T05:27:43.023Z,71.40
2022-08-16T05:30:34.915Z,71.38
2022-08-16T05:33:16.187Z,72.64
2022-08-16T05:35:54.878Z,72.43
2022-08-16T05:38:40.321Z,71.92
2022-08-16T05:41:17.634Z,71.45
2022-08-16T05:43:49.251Z,70.21
2022-08-16T05:46:30.546Z,70.27
2022-08-16T05:49:08.865Z,69.75
2022-08-16T05:51:42.315Z,69.55
2022-08-16T05:54:24.730Z,70.07
2022-08-16T05:56:55.878Z,70.30
2022-08-16T05:59:26.975Z,69.90
2022-08-16T06:01:58.028Z,69.99
2022-08-16T06:04:37.876Z,68.62
2022-08-16T06:07:26.188Z,68.87
2022-08-16T06:10:05.342Z,68.49
2022-08-16T06:12:37.799Z,67.77
2022-08-16T06:15:15.045Z,66.19
2022-08-16T06:17:47.354Z,64.98
2022-08-16T06:20:35.662Z,65.55
2022-08-16T06:23:17.086Z,66.08
2022-08-16T06:26:11.288Z,66.36
2022-08-16T06:28:44.743Z,66.90
2022-08-16T06:31:24.759Z,67.29
2022-08-16T06:33:55.659Z,67.44
2022-08-16T06:36:27.090Z,67.03
2022-08-16T06:39:15.229Z,66.83
2022-08-16T06:42:06.487Z,66.93
2022-08-16T06:44:59.389Z,66.71
2022-08-16T06:47:53.396Z,66.36
2022-08-16T06:50:29.811Z,65.91
2022-08-16T06:53:08.678Z,66.08
2022-08-16T06:55:43.301Z,65.62
2022-08-16T06:58:21.910Z,64.93
2022-08-16T07:00:54.001Z,65.02
2022-08-16T07:03:27.508Z,64.86
2022-08-16T07:06:00.000Z,64.34
2022-08-16T07:08:43.881Z,64.08
2022-08-16T07:11:13.664Z,64.03
2022-08-16T07:14:00.568Z,63.79
2022-08-16T07:16:44.429Z,63.93
2022-08-16T07:19:16.899Z,63.29
2022-08-16T07:21:59.524Z,63.18
2022-08-16T07:24:33.860Z,63.46
2022-08-16T07:27:16.199Z,62.87
2022-08-16T07:29:49.553Z,62.58
2022-08-16T07:32:29.744Z,63.39
2022-08-16T07:35:01.943Z,62.75
2022-08-16T07:37:31.828Z,63.05
2022-08-16T07:40:31.839Z,62.54
2022-08-16T07:43:10.533Z,62.90
2022-08-16T07:45:44.740Z,62.49
2022-08-16T07:48:17.071Z,63.42
2022-08-16T07:50:57.767Z,62.36
2022-08-16T07:53:30.902Z,62.19
2022-08-16T07:56:04.475Z,61.72
2022-08-16T07:58:42.320Z,61.48
2022-08-16T08:01:19.519Z,61.17
2022-08-16T08:04:00.526Z,61.22
2022-08-16T08:06:37.430Z,61.57
2022-08-16T08:09:13.205Z,61.07
2022-08-16T08:12:00.851Z,60.06
2022-08-16T08:14:35.532Z,59.99
2022-08-16T08:17:08.490Z,58.92
2022-08-16T08:19:40.474Z,58.66
2022-08-16T08:22:19.149Z,58.96
2022-08-16T08:24:59.161Z,57.99
2022-08-16T08:27:35.191Z,58.65
2022-08-16T08:30:50.188Z,58.36
2022-08-16T08:33:01.177Z,57.60
2022-08-16T08:35:35.874Z,57.87
2022-08-16T08:38:08.889Z,56.67
2022-08-16T08:40:45.864Z,56.64
2022-08-16T08:43:18.103Z,56.83
2022-08-16T08:45:57.214Z,56.83
2022-08-16T08:48:33.431Z,57.38
2022-08-16T08:51:09.198Z,56.66
2022-08-16T08:53:58.021Z,56.66
2022-08-16T08:56:35.028Z,56.12
2022-08-16T08:59:34.552Z,56.85
2022-08-16T09:02:12.022Z,56.63
2022-08-16T09:04:49.830Z,55.49
2022-08-16T09:07:23.964Z,54.92
2022-08-16T09:10:06.099Z,55.49
2022-08-16T09:12:37.737Z,54.87
2022-08-16T09:15:36.555Z,55.92
2022-08-16T09:18:25.104Z,56.32
2022-08-16T09:21:00.775Z,56.40
2022-08-16T09:23:36.537Z,56.39
2022-08-16T09:26:44.638Z,53.79
2022-08-16T09:29:13.489Z,54.64
2022-08-16T09:31:47.316Z,55.06
2022-08-16T09:34:23.454Z,53.25
2022-08-16T09:36:57.996Z,54.55
2022-08-16T09:39:41.125Z,53.72
2022-08-16T09:42:14.396Z,53.76
2022-08-16T09:45:09.132Z,52.95
2022-08-16T09:47:56.093Z,51.42
2022-08-16T09:50:37.135Z,51.13
2022-08-16T09:53:16.654Z,51.40
2022-08-16T09:55:53.442Z,50.71
2022-08-16T09:58:37.714Z,51.57
2022-08-16T10:01:11.804Z,51.12
2022-08-16T10:04:02.575Z,51.31
2022-08-16T10:06:34.152Z,52.45
2022-08-16T10:09:10.729Z,52.61
2022-08-16T10:11:55.158Z,51.16
2022-08-16T10:14:33.100Z,52.70
2022-08-16T10:17:06.268Z,52.09
2022-08-16T10:19:36.737Z,52.31
2022-08-16T10:22:09.591Z,52.13
2022-08-16T10:24:55.753Z,52.36
2022-08-16T10:27:56.748Z,50.71
2022-08-16T10:30:25.700Z,49.56
2022-08-16T10:32:58.062Z,50.46
2022-08-16T10:35:32.657Z,50.65
2022-08-16T10:38:06.855Z,50.50
2022-08-16T10:40:45.532Z,49.05
2022-08-16T10:43:16.809Z,48.94
2022-08-16T10:46:00.573Z,50.42
2022-08-16T10:48:38.973Z,49.73
2022-08-16T10:51:10.777Z,50.29
2022-08-16T10:53:41.770Z,49.85
2022-08-16T10:59:38.969Z,48.62
2022-08-16T11:05:22.938Z,46.97
2022-08-16T11:07:54.441Z,48.67
2022-08-16T11:19:13.440Z,48.58
2022-08-16T11:24:43.184Z,46.84
2022-08-16T11:27:20.381Z,47.00
2022-08-16T11:29:55.834Z,47.18
2022-08-16T11:32:29.985Z,45.97
2022-08-16T11:35:13.237Z,45.91
2022-08-16T11:40:40.640Z,46.14
2022-08-16T11:43:16.961Z,44.27
2022-08-16T11:45:53.921Z,44.09
2022-08-16T11:48:25.433Z,44.89
2022-08-16T11:50:55.595Z,43.94
2022-08-16T11:53:28.326Z,43.46
2022-08-16T11:56:06.230Z,43.32
2022-08-16T11:58:42.185Z,44.13
2022-08-16T12:01:15.555Z,44.05
2022-08-16T12:03:45.864Z,45.03
2022-08-16T12:06:25.199Z,42.62
2022-08-16T12:09:02.091Z,44.01
2022-08-16T12:11:33.311Z,45.33
2022-08-16T12:14:04.644Z,43.21
2022-08-16T12:16:38.433Z,42.83
2022-08-16T12:19:13.873Z,43.98
2022-08-16T12:21:58.950Z,43.44
2022-08-16T12:24:30.425Z,43.56
2022-08-16T12:27:06.801Z,41.27
2022-08-16T12:29:40.092Z,41.69
2022-08-16T12:32:35.774Z,42.48
2022-08-16T12:35:03.146Z,42.42
2022-08-16T12:37:33.505Z,41.44
2022-08-16T12:40:22.438Z,42.42
2022-08-16T12:42:59.456Z,40.32
2022-08-16T12:45:33.555Z,41.19
2022-08-16T12:48:34.021Z,39.90
2022-08-16T12:51:04.979Z,38.58
2022-08-16T12:53:44.162Z,38.94
2022-08-16T12:56:15.502Z,40.17
2022-08-16T12:58:51.937Z,39.13
2022-08-16T13:01:24.697Z,39.50
2022-08-16T13:04:11.421Z,39.92
2022-08-16T13:06:43.108Z,37.33
2022-08-16T13:09:26.515Z,37.34
2022-08-16T13:12:04.337Z,37.52
2022-08-16T13:14:41.097Z,37.93
2022-08-16T13:17:19.048Z,38.10
2022-08-16T13:20:11.069Z,39.22
2022-08-16T13:22:45.208Z,38.44
2022-08-16T13:25:21.330Z,38.51
2022-08-16T13:28:03.505Z,39.00
2022-08-16T13:30:41.651Z,38.65
2022-08-16T13:33:15.773Z,37.94
2022-08-16T13:35:55.986Z,37.86
2022-08-16T13:38:36.434Z,37.88
2022-08-16T13:41:09.813Z,36.92
2022-08-16T13:43:40.731Z,38.27
2022-08-16T13:46:11.054Z,37.64
2022-08-16T13:48:44.264Z,38.51
2022-08-16T13:51:20.311Z,36.49
2022-08-16T13:53:54.926Z,37.47
2022-08-16T13:56:31.754Z,37.62
2022-08-16T13:59:16.506Z,37.51
2022-08-16T14:01:55.710Z,35.78
2022-08-16T14:04:31.242Z,36.59
2022-08-16T14:07:05.799Z,36.69
2022-08-16T14:09:36.978Z,36.57
2022-08-16T14:12:17.876Z,37.13
2022-08-16T14:14:47.969Z,38.14
2022-08-16T14:17:17.905Z,37.61
2022-08-16T14:19:47.962Z,36.62
2022-08-16T14:22:30.713Z,35.80
2022-08-16T14:25:07.075Z,36.32
2022-08-16T14:27:39.099Z,36.60
2022-08-16T14:30:15.352Z,36.63
2022-08-16T14:32:46.810Z,37.18
2022-08-16T14:35:29.312Z,36.75
2022-08-16T14:38:18.363Z,36.44
2022-08-16T14:40:55.190Z,36.69
2022-08-16T14:43:29.752Z,36.59
2022-08-16T14:46:00.819Z,35.55
2022-08-16T14:48:31.473Z,35.06
2022-08-16T14:51:01.588Z,35.84
2022-08-16T14:53:35.085Z,36.19
2022-08-16T14:56:06.964Z,36.22
2022-08-16T14:58:38.278Z,36.66
2022-08-16T15:01:09.912Z,36.57
2022-08-16T15:03:42.216Z,37.11
2022-08-16T15:06:14.781Z,37.31
2022-08-16T15:08:48.866Z,37.50
2022-08-16T15:11:20.683Z,36.91
2022-08-16T15:13:51.708Z,37.47
2022-08-16T15:16:22.404Z,37.25
2022-08-16T15:18:58.921Z,37.24
2022-08-16T15:21:29.146Z,37.65
2022-08-16T15:24:02.863Z,37.03
2022-08-16T15:26:45.279Z,37.30
2022-08-16T15:29:17.093Z,36.66
2022-08-16T15:31:48.318Z,37.13
2022-08-16T15:34:19.034Z,35.67
2022-08-16T15:36:52.044Z,34.26
2022-08-16T15:39:39.934Z,34.38
2022-08-16T15:42:28.832Z,35.15
2022-08-16T15:45:12.074Z,35.62
2022-08-16T15:47:55.804Z,35.32
2022-08-16T15:50:38.324Z,36.70
2022-08-16T15:53:27.390Z,35.79
2022-08-16T15:56:08.871Z,37.44
2022-08-16T15:58:46.855Z,37.85
2022-08-16T16:01:34.944Z,38.08
2022-08-16T19:05:04.907Z,44.63
2022-08-16T19:07:34.630Z,45.02
2022-08-16T19:10:04.951Z,45.31
2022-08-16T19:12:38.833Z,45.72
2022-08-16T19:15:15.815Z,46.64
2022-08-16T19:17:46.616Z,46.88
2022-08-16T19:20:21.430Z,47.13
2022-08-16T19:23:10.941Z,47.62
2022-08-16T19:25:49.586Z,44.03
2022-08-16T19:28:50.971Z,46.23
2022-08-16T22:36:28.575Z,61.50
2022-08-16T22:38:59.607Z,55.84
